createdAt,value
2022-10-14T00:00:37.365Z,16.73
2022-10-14T00:03:03.912Z,16.67
2022-10-14T00:05:30.499Z,14.20
2022-10-14T00:07:57.045Z,13.47
2022-10-14T00:10:24.021Z,13.77
2022-10-14T00:12:50.599Z,15.77
2022-10-14T00:15:17.956Z,13.60
2022-10-14T00:17:44.524Z,12.70
2022-10-14T00:20:11.289Z,15.40
2022-10-14T00:22:37.844Z,13.60
2022-10-14T00:25:04.466Z,13.67
2022-10-14T00:27:31.959Z,13.60
2022-10-14T00:30:01.156Z,15.53
2022-10-14T00:32:27.723Z,15.13
2022-10-14T00:34:54.930Z,13.40
2022-10-14T00:37:21.759Z,13.50
2022-10-14T00:39:49.247Z,13.47
2022-10-14T00:42:24.547Z,13.40
2022-10-14T00:44:58.886Z,14.37
2022-10-14T00:47:25.430Z,14.03
2022-10-14T00:49:51.941Z,11.03
2022-10-14T00:52:19.454Z,12.80
2022-10-14T00:54:48.542Z,13.60
2022-10-14T00:57:15.797Z,13.00
2022-10-14T00:59:42.516Z,11.93
2022-10-14T01:02:09.269Z,13.47
2022-10-14T01:04:37.389Z,12.80
2022-10-14T01:07:20.613Z,12.73
2022-10-14T01:09:56.426Z,12.27
2022-10-14T01:12:36.394Z,12.20
2022-10-14T01:15:09.147Z,11.23
2022-10-14T01:17:48.217Z,10.60
2022-10-14T01:20:33.275Z,10.90
2022-10-14T01:23:12.275Z,11.33
2022-10-14T01:25:52.989Z,10.57
2022-10-14T01:28:52.636Z,11.13
2022-10-14T01:31:23.782Z,10.30
2022-10-14T01:33:53.276Z,11.17
2022-10-14T01:36:29.848Z,10.50
2022-10-14T01:39:02.500Z,10.47
2022-10-14T01:41:32.498Z,10.33
2022-10-14T01:44:02.347Z,9.13
2022-10-14T01:46:29.484Z,9.90
2022-10-14T01:49:02.276Z,10.10
2022-10-14T01:51:33.301Z,9.40
2022-10-14T01:54:05.467Z,9.10
2022-10-14T01:56:36.960Z,10.00
2022-10-14T01:59:07.672Z,9.67
2022-10-14T02:01:35.031Z,10.40
2022-10-14T02:04:01.776Z,8.80
2022-10-14T02:06:32.037Z,9.00
2022-10-14T02:09:10.904Z,8.40
2022-10-14T02:11:49.904Z,8.33
2022-10-14T02:14:25.630Z,6.97
2022-10-14T02:16:59.160Z,8.43
2022-10-14T02:19:42.175Z,8.30
2022-10-14T02:22:29.836Z,7.13
2022-10-14T02:25:19.244Z,7.73
2022-10-14T02:27:47.473Z,6.87
2022-10-14T02:30:17.005Z,8.07
2022-10-14T02:32:45.158Z,8.10
2022-10-14T02:35:15.140Z,7.50
2022-10-14T02:37:41.807Z,6.70
2022-10-14T02:40:11.622Z,7.60
2022-10-14T02:42:38.369Z,8.20
2022-10-14T02:45:05.772Z,9.17
2022-10-14T02:47:32.487Z,9.13
2022-10-14T02:50:00.273Z,7.63
2022-10-14T02:52:26.975Z,8.60
2022-10-14T02:54:53.782Z,8.83
2022-10-14T02:57:20.403Z,8.23
2022-10-14T02:59:48.313Z,8.20
2022-10-14T03:02:15.104Z,9.00
2022-10-14T03:04:41.997Z,8.93
2022-10-14T03:07:10.181Z,10.30
2022-10-14T03:09:42.666Z,9.17
2022-10-14T03:12:10.188Z,8.40
2022-10-14T03:14:36.848Z,9.10
2022-10-14T03:17:04.315Z,9.10
2022-10-14T03:19:33.179Z,7.40
2022-10-14T03:22:00.863Z,7.13
2022-10-14T03:24:27.375Z,7.57
2022-10-14T03:27:14.010Z,8.90
2022-10-14T03:29:41.380Z,8.53
2022-10-14T03:32:16.494Z,9.03
2022-10-14T03:35:05.371Z,8.27
2022-10-14T03:37:32.101Z,12.00
2022-10-14T03:39:59.301Z,10.13
2022-10-14T03:42:26.135Z,9.53
2022-10-14T03:44:52.942Z,11.80
2022-10-14T03:47:26.889Z,11.10
2022-10-14T03:49:54.056Z,11.83
2022-10-14T03:52:37.853Z,13.23
2022-10-14T03:55:09.502Z,14.67
2022-10-14T03:57:36.190Z,13.90
2022-10-14T04:00:05.587Z,13.60
2022-10-14T04:02:41.757Z,14.27
2022-10-14T04:05:34.131Z,14.10
2022-10-14T04:08:05.786Z,13.60
2022-10-14T04:10:34.110Z,14.80
2022-10-14T04:13:01.266Z,15.30
2022-10-14T04:15:35.757Z,15.67
2022-10-14T04:18:09.676Z,18.17
2022-10-14T04:20:37.982Z,17.03
2022-10-14T04:23:05.483Z,17.90
2022-10-14T04:25:33.880Z,18.30
2022-10-14T04:28:03.413Z,18.30
2022-10-14T04:30:42.434Z,18.53
2022-10-14T04:33:14.161Z,18.00
2022-10-14T04:35:41.163Z,17.47
2022-10-14T04:38:11.372Z,19.80
2022-10-14T04:40:48.151Z,16.17
2022-10-14T04:43:14.897Z,14.20
2022-10-14T04:45:42.157Z,13.07
2022-10-14T04:48:10.393Z,12.83
2022-10-14T04:50:41.996Z,14.73
2022-10-14T04:53:47.116Z,14.63
2022-10-14T04:56:32.461Z,16.60
2022-10-14T04:59:01.965Z,13.17
2022-10-14T05:01:55.032Z,12.87
2022-10-14T05:04:24.417Z,13.17
2022-10-14T05:06:51.852Z,13.63
2022-10-14T05:09:19.657Z,15.83
2022-10-14T05:11:46.429Z,12.67
2022-10-14T05:14:16.775Z,12.30
2022-10-14T05:16:47.303Z,12.80
2022-10-14T05:19:14.366Z,11.37
2022-10-14T05:21:48.274Z,12.73
2022-10-14T05:24:20.228Z,10.40
2022-10-14T05:26:46.867Z,10.70
2022-10-14T05:29:14.288Z,14.17
2022-10-14T05:31:41.443Z,11.50
2022-10-14T05:34:26.751Z,11.33
2022-10-14T05:36:54.385Z,13.07
2022-10-14T05:39:22.034Z,13.13
2022-10-14T05:41:48.600Z,12.47
2022-10-14T05:44:19.744Z,13.47
2022-10-14T05:46:48.038Z,13.03
2022-10-14T05:49:14.861Z,12.30
2022-10-14T05:51:43.145Z,11.13
2022-10-14T05:54:16.451Z,12.33
2022-10-14T05:56:43.897Z,11.37
2022-10-14T05:59:10.938Z,11.43
2022-10-14T06:01:38.335Z,9.70
2022-10-14T06:04:05.071Z,11.47
2022-10-14T06:06:32.107Z,11.93
2022-10-14T06:08:58.896Z,9.63
2022-10-14T06:11:25.543Z,9.37
2022-10-14T06:13:52.644Z,9.53
2022-10-14T06:16:19.373Z,9.07
2022-10-14T06:18:46.790Z,8.97
2022-10-14T06:21:15.740Z,8.60
2022-10-14T06:23:42.271Z,8.20
2022-10-14T06:26:11.771Z,6.27
2022-10-14T06:28:38.678Z,6.47
2022-10-14T06:31:05.763Z,6.80
2022-10-14T06:33:32.519Z,8.07
2022-10-14T06:36:01.127Z,7.30
2022-10-14T06:38:27.623Z,7.03
2022-10-14T06:40:54.557Z,7.47
2022-10-14T06:43:21.526Z,7.90
2022-10-14T06:45:48.305Z,7.40
2022-10-14T06:48:15.196Z,7.50
2022-10-14T06:50:42.062Z,7.73
2022-10-14T06:53:08.712Z,6.97
2022-10-14T06:55:35.306Z,5.67
2022-10-14T06:58:01.983Z,7.17
2022-10-14T07:00:28.485Z,9.57
2022-10-14T07:02:55.030Z,7.20
2022-10-14T07:05:21.593Z,6.90
2022-10-14T07:07:48.148Z,8.70
2022-10-14T07:10:14.703Z,7.20
2022-10-14T07:12:41.272Z,6.97
2022-10-14T07:15:08.154Z,6.97
2022-10-14T07:17:34.766Z,11.87
2022-10-14T07:20:01.452Z,7.07
2022-10-14T07:22:27.969Z,7.07
2022-10-14T07:24:54.720Z,4.70
2022-10-14T07:27:21.526Z,6.13
2022-10-14T07:29:48.343Z,5.90
2022-10-14T07:32:14.821Z,4.90
2022-10-14T07:34:41.362Z,4.60
2022-10-14T07:37:07.868Z,4.20
2022-10-14T07:39:34.440Z,4.00
2022-10-14T07:42:01.025Z,4.10
2022-10-14T07:44:27.676Z,5.10
2022-10-14T07:46:54.389Z,5.17
2022-10-14T07:49:21.399Z,4.17
2022-10-14T07:51:48.600Z,4.00
2022-10-14T07:54:19.649Z,4.20
2022-10-14T07:56:46.812Z,4.30
2022-10-14T07:59:13.378Z,3.50
2022-10-14T08:01:40.046Z,3.87
2022-10-14T08:04:06.854Z,5.10
2022-10-14T08:06:33.605Z,4.20
2022-10-14T08:09:00.090Z,5.13
2022-10-14T08:11:28.044Z,4.90
2022-10-14T08:13:55.198Z,5.20
2022-10-14T08:16:26.243Z,5.23
2022-10-14T08:18:53.243Z,5.23
2022-10-14T08:21:21.145Z,4.90
2022-10-14T08:23:48.151Z,3.70
2022-10-14T08:26:19.832Z,4.60
2022-10-14T08:28:46.974Z,4.40
2022-10-14T08:31:13.571Z,3.83
2022-10-14T08:33:40.141Z,4.57
2022-10-14T08:36:06.992Z,3.20
2022-10-14T08:38:33.503Z,3.50
2022-10-14T08:41:03.157Z,3.87
2022-10-14T08:43:35.383Z,4.63
2022-10-14T08:46:10.411Z,3.80
2022-10-14T08:48:37.149Z,4.77
2022-10-14T08:51:07.582Z,3.33
2022-10-14T08:53:56.142Z,2.97
2022-10-14T08:56:24.308Z,4.10
2022-10-14T08:58:51.861Z,3.87
2022-10-14T09:01:26.265Z,4.57
2022-10-14T09:03:54.064Z,3.50
2022-10-14T09:06:30.922Z,3.40
2022-10-14T09:09:00.638Z,4.03
2022-10-14T09:11:30.786Z,3.47
2022-10-14T09:14:01.402Z,3.73
2022-10-14T09:16:30.732Z,4.07
2022-10-14T09:18:58.610Z,4.13
2022-10-14T09:24:21.918Z,3.60
2022-10-14T09:29:42.659Z,4.50
2022-10-14T09:32:12.225Z,3.93
2022-10-14T09:34:40.928Z,4.80
2022-10-14T09:37:23.037Z,3.73
2022-10-14T09:39:50.658Z,3.50
2022-10-14T09:42:19.444Z,4.00
2022-10-14T09:45:02.612Z,3.17
2022-10-14T09:47:29.218Z,5.13
2022-10-14T09:49:56.149Z,3.40
2022-10-14T09:52:23.805Z,4.40
2022-10-14T09:54:58.717Z,4.13
2022-10-14T09:57:25.762Z,4.30
2022-10-14T10:00:00.535Z,4.63
2022-10-14T10:02:40.672Z,3.73
2022-10-14T10:05:22.615Z,4.67
2022-10-14T10:08:01.393Z,4.63
2022-10-14T10:10:30.869Z,5.40
2022-10-14T10:12:57.921Z,4.97
2022-10-14T10:15:24.745Z,4.00
2022-10-14T10:17:51.779Z,5.20
2022-10-14T10:20:33.457Z,4.83
2022-10-14T10:23:20.106Z,5.70
2022-10-14T10:25:48.127Z,5.70
2022-10-14T10:28:20.278Z,6.13
2022-10-14T10:31:05.379Z,5.83
2022-10-14T10:33:42.676Z,6.40
2022-10-14T10:38:49.588Z,5.70
2022-10-14T10:41:19.228Z,6.80
2022-10-14T10:43:54.503Z,6.77
2022-10-14T10:46:23.993Z,6.23
2022-10-14T10:48:55.320Z,6.43
2022-10-14T10:51:30.946Z,5.93
2022-10-14T10:54:08.056Z,5.73
2022-10-14T10:56:34.684Z,7.03
2022-10-14T11:01:46.705Z,7.87
2022-10-14T11:04:19.509Z,6.40
2022-10-14T11:07:27.084Z,7.00
2022-10-14T11:10:13.536Z,7.33
2022-10-14T11:12:47.208Z,5.00
2022-10-14T11:15:22.872Z,6.93
2022-10-14T11:18:09.758Z,6.87
2022-10-14T11:20:55.067Z,6.53
2022-10-14T11:23:35.622Z,8.30
2022-10-14T11:26:20.475Z,6.93
2022-10-14T11:29:06.042Z,7.73
2022-10-14T11:31:32.784Z,6.00
2022-10-14T11:33:59.253Z,6.83
2022-10-14T11:36:35.785Z,7.73
2022-10-14T11:39:15.535Z,6.60
2022-10-14T11:41:51.287Z,7.23
2022-10-14T11:44:23.657Z,5.67
2022-10-14T11:46:53.171Z,6.77
2022-10-14T11:49:27.748Z,6.80
2022-10-14T11:52:00.358Z,12.80
2022-10-14T11:54:41.144Z,8.90
2022-10-14T11:57:13.007Z,9.70
2022-10-14T11:59:59.994Z,10.17
2022-10-14T12:02:32.049Z,12.50
2022-10-14T12:05:03.031Z,21.10
2022-10-14T12:07:35.016Z,11.00
2022-10-14T12:10:04.160Z,17.80
2022-10-14T12:12:32.355Z,18.40
2022-10-14T12:15:05.805Z,14.77
2022-10-14T12:17:35.935Z,9.47
2022-10-14T12:20:07.389Z,10.17
2022-10-14T12:22:34.874Z,8.53
2022-10-14T12:25:03.941Z,10.87
2022-10-14T12:27:30.983Z,12.07
2022-10-14T12:29:58.836Z,11.43
2022-10-14T12:32:30.695Z,17.70
2022-10-14T12:35:01.412Z,8.83
2022-10-14T12:37:32.410Z,9.73
2022-10-14T12:40:02.529Z,10.40
2022-10-14T12:42:32.283Z,9.13
2022-10-14T12:45:03.333Z,8.77
2022-10-14T12:47:37.092Z,8.10
2022-10-14T12:50:15.884Z,9.43
2022-10-14T12:52:47.001Z,8.20
2022-10-14T12:55:17.800Z,8.17
2022-10-14T12:57:46.849Z,8.40
2022-10-14T13:00:22.506Z,9.20
2022-10-14T13:02:54.362Z,9.43
2022-10-14T13:05:27.286Z,6.97
2022-10-14T13:08:11.053Z,12.57
2022-10-14T13:10:41.655Z,7.87
2022-10-14T13:13:30.455Z,7.73
2022-10-14T13:15:57.044Z,8.43
2022-10-14T13:18:34.314Z,7.03
2022-10-14T13:21:00.906Z,12.57
2022-10-14T13:23:27.464Z,8.57
2022-10-14T13:26:15.961Z,14.23
2022-10-14T13:28:46.954Z,6.67
2022-10-14T13:31:21.545Z,13.80
2022-10-14T13:33:52.025Z,20.07
2022-10-14T13:36:32.473Z,12.30
2022-10-14T13:39:00.189Z,9.30
2022-10-14T13:41:30.729Z,5.33
2022-10-14T13:43:59.327Z,6.60
2022-10-14T13:46:29.204Z,6.60
2022-10-14T13:48:57.651Z,5.73
2022-10-14T13:51:31.852Z,4.80
2022-10-14T13:54:16.054Z,4.90
2022-10-14T13:56:43.734Z,5.97
2022-10-14T13:59:32.944Z,4.33
2022-10-14T14:02:09.802Z,4.77
2022-10-14T14:04:37.543Z,4.30
2022-10-14T14:07:27.736Z,3.70
2022-10-14T14:09:52.972Z,4.13
2022-10-14T14:12:20.915Z,4.47
2022-10-14T14:14:48.699Z,5.10
2022-10-14T14:17:20.009Z,5.30
2022-10-14T14:19:50.581Z,4.90
2022-10-14T14:22:19.053Z,4.30
2022-10-14T14:24:46.834Z,4.57
2022-10-14T14:27:14.672Z,4.70
2022-10-14T14:29:45.093Z,3.87
2022-10-14T14:32:15.001Z,4.17
2022-10-14T14:34:43.537Z,4.00
2022-10-14T14:40:03.713Z,3.73
2022-10-14T14:42:39.630Z,3.97
2022-10-14T14:45:12.768Z,4.53
2022-10-14T14:47:39.965Z,6.03
2022-10-14T14:50:29.139Z,3.80
2022-10-14T14:52:54.547Z,4.87
2022-10-14T14:55:34.747Z,5.00
2022-10-14T14:58:02.475Z,4.73
2022-10-14T15:00:30.652Z,5.73
2022-10-14T15:02:59.768Z,5.03
2022-10-14T15:05:26.738Z,5.60
2022-10-14T15:07:53.443Z,4.57
2022-10-14T15:10:31.434Z,5.87
2022-10-14T15:12:59.190Z,4.97
2022-10-14T15:15:33.926Z,5.40
2022-10-14T15:18:05.109Z,5.00
2022-10-14T15:20:34.932Z,5.47
2022-10-14T15:23:02.420Z,6.30
2022-10-14T15:25:31.201Z,5.10
2022-10-14T15:28:02.128Z,6.13
2022-10-14T15:30:31.809Z,8.27
2022-10-14T15:32:59.880Z,7.00
2022-10-14T15:35:27.162Z,5.97
2022-10-14T15:37:54.116Z,6.80
2022-10-14T15:40:26.253Z,6.03
2022-10-14T15:42:52.840Z,5.30
2022-10-14T15:45:19.781Z,5.33
2022-10-14T15:47:52.159Z,5.77
2022-10-14T15:50:21.151Z,5.80
2022-10-14T15:52:53.501Z,5.90
2022-10-14T15:55:24.652Z,6.40
2022-10-14T15:57:52.317Z,6.43
2022-10-14T16:00:20.100Z,5.50
2022-10-14T16:02:47.960Z,5.20
2022-10-14T16:05:19.882Z,5.87
2022-10-14T16:07:48.264Z,5.50
2022-10-14T16:10:15.900Z,5.90
2022-10-14T16:12:42.705Z,14.80
2022-10-14T16:15:18.886Z,31.40
2022-10-14T16:17:47.603Z,42.40
2022-10-14T16:20:16.937Z,9.30
2022-10-14T16:22:43.588Z,6.17
2022-10-14T16:25:30.963Z,5.87
2022-10-14T16:27:57.892Z,6.43
2022-10-14T16:30:27.906Z,14.00
2022-10-14T16:32:55.051Z,7.57
2022-10-14T16:35:21.681Z,8.27
2022-10-14T16:37:48.927Z,8.90
2022-10-14T16:40:15.572Z,7.33
2022-10-14T16:42:42.229Z,6.27
2022-10-14T16:45:08.955Z,5.60
2022-10-14T16:47:35.752Z,6.80
2022-10-14T16:50:02.376Z,7.10
2022-10-14T16:52:29.016Z,7.57
2022-10-14T16:54:55.567Z,8.00
2022-10-14T16:57:22.205Z,8.13
2022-10-14T16:59:48.938Z,11.60
2022-10-14T17:02:16.799Z,13.23
2022-10-14T17:04:46.397Z,13.80
2022-10-14T17:07:14.773Z,16.20
2022-10-14T17:09:41.357Z,17.47
2022-10-14T17:12:12.887Z,21.57
2022-10-14T17:14:40.982Z,24.90
2022-10-14T17:17:07.662Z,21.70
2022-10-14T17:19:34.249Z,18.10
2022-10-14T17:22:02.074Z,21.50
2022-10-14T17:24:29.246Z,20.00
2022-10-14T17:26:56.456Z,70.70
2022-10-14T17:29:23.125Z,100.93
2022-10-14T17:31:49.793Z,53.60
2022-10-14T17:34:16.422Z,60.17
2022-10-14T17:36:43.025Z,58.43
2022-10-14T17:39:16.473Z,38.83
2022-10-14T17:41:48.042Z,36.93
2022-10-14T17:44:14.728Z,32.43
2022-10-14T17:46:41.320Z,23.03
2022-10-14T17:49:11.100Z,23.00
2022-10-14T17:51:38.480Z,22.67
2022-10-14T17:54:06.258Z,17.80
2022-10-14T17:56:33.808Z,22.30
2022-10-14T17:59:01.466Z,21.50
2022-10-14T18:01:37.520Z,15.60
2022-10-14T18:04:15.772Z,25.60
2022-10-14T18:06:43.911Z,13.23
2022-10-14T18:09:11.570Z,23.13
2022-10-14T18:12:07.226Z,14.57
2022-10-14T18:14:27.972Z,18.03
2022-10-14T18:16:54.795Z,19.30
2022-10-14T18:19:21.315Z,20.60
2022-10-14T18:21:48.076Z,14.07
2022-10-14T18:24:14.629Z,28.10
2022-10-14T18:26:41.406Z,12.50
2022-10-14T18:29:08.892Z,14.03
2022-10-14T18:31:36.277Z,13.93
2022-10-14T18:34:03.160Z,12.90
2022-10-14T18:36:31.041Z,14.73
2022-10-14T18:38:58.833Z,14.70
2022-10-14T18:41:25.943Z,87.40
2022-10-14T18:43:54.563Z,58.80
2022-10-14T18:46:22.685Z,44.80
2022-10-14T18:48:50.853Z,41.10
2022-10-14T18:51:18.661Z,49.60
2022-10-14T18:53:45.887Z,77.60
2022-10-14T18:56:17.066Z,34.67
2022-10-14T18:58:44.468Z,22.97
2022-10-14T19:01:11.699Z,15.57
2022-10-14T19:03:39.942Z,15.20
2022-10-14T19:06:09.995Z,16.40
2022-10-14T19:08:37.336Z,18.27
2022-10-14T19:11:08.679Z,19.50
2022-10-14T19:13:35.525Z,19.70
2022-10-14T19:16:03.273Z,18.97
2022-10-14T19:18:29.925Z,19.57
2022-10-14T19:21:02.760Z,18.83
2022-10-14T19:23:29.272Z,19.53
2022-10-14T19:25:56.229Z,19.70
2022-10-14T19:28:22.869Z,21.80
2022-10-14T19:30:49.476Z,19.50
2022-10-14T19:33:16.202Z,20.00
2022-10-14T19:35:42.804Z,19.87
2022-10-14T19:38:09.510Z,19.47
2022-10-14T19:40:36.145Z,17.80
2022-10-14T19:43:02.801Z,18.50
2022-10-14T19:45:29.461Z,19.40
2022-10-14T19:47:56.066Z,17.53
2022-10-14T19:50:22.625Z,20.07
2022-10-14T19:52:49.332Z,20.00
2022-10-14T19:55:15.973Z,19.07
2022-10-14T19:57:42.533Z,21.43
2022-10-14T20:00:09.528Z,22.07
2022-10-14T20:02:36.230Z,21.23
2022-10-14T20:05:02.898Z,21.30
2022-10-14T20:07:29.545Z,23.93
2022-10-14T20:09:58.093Z,19.73
2022-10-14T20:12:27.113Z,22.00
2022-10-14T20:14:55.035Z,20.20
2022-10-14T20:17:21.623Z,21.07
2022-10-14T20:19:48.272Z,21.47
2022-10-14T20:22:14.785Z,26.90
2022-10-14T20:24:41.587Z,20.00
2022-10-14T20:27:11.072Z,18.50
2022-10-14T20:29:38.861Z,18.77
2022-10-14T20:32:05.482Z,25.90
2022-10-14T20:34:31.984Z,23.80
2022-10-14T20:36:58.492Z,24.00
2022-10-14T20:39:25.114Z,24.10
2022-10-14T20:41:51.647Z,17.50
2022-10-14T20:44:23.665Z,22.20
2022-10-14T20:46:50.798Z,20.40
2022-10-14T20:49:17.497Z,15.73
2022-10-14T20:51:44.109Z,14.53
2022-10-14T20:54:11.814Z,15.47
2022-10-14T20:56:38.552Z,13.33
2022-10-14T20:59:07.353Z,12.87
2022-10-14T21:01:35.304Z,14.53
2022-10-14T21:04:02.723Z,12.20
2022-10-14T21:06:29.543Z,10.90
2022-10-14T21:08:57.140Z,11.43
2022-10-14T21:11:24.185Z,11.03
2022-10-14T21:13:55.440Z,10.50
2022-10-14T21:16:24.225Z,11.17
2022-10-14T21:18:55.223Z,10.50
2022-10-14T21:21:24.997Z,9.87
2022-10-14T21:23:51.574Z,10.37
2022-10-14T21:26:18.309Z,8.90
2022-10-14T21:28:45.094Z,10.63
2022-10-14T21:31:14.776Z,10.43
2022-10-14T21:33:44.133Z,10.00
2022-10-14T21:36:12.049Z,10.07
2022-10-14T21:38:38.789Z,9.40
2022-10-14T21:41:06.218Z,9.03
2022-10-14T21:43:34.310Z,9.90
2022-10-14T21:46:01.871Z,9.80
2022-10-14T21:48:28.355Z,8.67
2022-10-14T21:51:05.252Z,11.13
2022-10-14T21:53:32.430Z,9.73
2022-10-14T21:55:59.006Z,9.90
2022-10-14T21:58:25.781Z,8.77
2022-10-14T22:00:52.929Z,8.40
2022-10-14T22:03:19.630Z,9.00
2022-10-14T22:05:46.172Z,7.73
2022-10-14T22:08:12.907Z,9.60
2022-10-14T22:10:43.739Z,8.60
2022-10-14T22:13:10.420Z,8.07
2022-10-14T22:15:41.476Z,9.23
2022-10-14T22:18:08.198Z,9.93
2022-10-14T22:20:34.908Z,8.47
2022-10-14T22:23:01.399Z,10.07
2022-10-14T22:25:28.111Z,9.20
2022-10-14T22:27:54.822Z,11.63
2022-10-14T22:30:21.517Z,10.67
2022-10-14T22:32:48.108Z,10.43
2022-10-14T22:35:14.765Z,12.27
2022-10-14T22:37:41.602Z,10.00
2022-10-14T22:40:08.343Z,10.07
2022-10-14T22:42:36.858Z,10.97
2022-10-14T22:45:06.236Z,12.30
2022-10-14T22:47:32.993Z,9.77
2022-10-14T22:49:59.460Z,10.40
2022-10-14T22:52:26.020Z,10.70
2022-10-14T22:54:52.719Z,11.07
2022-10-14T22:57:19.336Z,10.40
2022-10-14T22:59:46.091Z,9.33
2022-10-14T23:02:12.817Z,9.97
2022-10-14T23:04:39.248Z,10.70
2022-10-14T23:07:06.993Z,11.00
2022-10-14T23:12:05.520Z,10.60
2022-10-14T23:14:32.258Z,12.27
2022-10-14T23:16:58.749Z,10.87
2022-10-14T23:19:25.276Z,12.47
2022-10-14T23:21:51.915Z,11.60
2022-10-14T23:24:18.408Z,10.67
2022-10-14T23:26:45.058Z,11.70
2022-10-14T23:29:11.832Z,11.07
2022-10-14T23:31:38.944Z,11.50
2022-10-14T23:34:07.119Z,11.10
2022-10-14T23:36:33.808Z,11.93
2022-10-14T23:39:00.346Z,11.57
2022-10-14T23:41:26.936Z,10.40
2022-10-14T23:43:53.633Z,11.90
2022-10-14T23:46:20.381Z,11.23
2022-10-14T23:48:55.406Z,12.00
2022-10-14T23:51:33.404Z,12.50
2022-10-14T23:54:00.084Z,12.63
2022-10-14T23:56:26.619Z,12.37
2022-10-14T23:58:53.078Z,11.60
